createdAt,value
2022-11-28T22:01:50.433Z,21.83
2022-11-28T22:03:27.113Z,21.94
2022-11-28T22:04:27.687Z,21.98
2022-11-28T22:05:27.515Z,21.99
2022-11-28T22:06:27.552Z,21.99
2022-11-28T22:07:27.535Z,21.99
2022-11-28T22:08:27.393Z,22.00
2022-11-28T22:10:37.631Z,22.00
2022-11-28T22:11:38.706Z,21.99
2022-11-28T22:12:38.500Z,21.98
2022-11-28T22:13:38.323Z,21.96
2022-11-28T22:14:38.210Z,21.94
2022-11-28T22:15:38.357Z,21.94
2022-11-28T22:16:38.055Z,21.92
2022-11-28T22:17:38.333Z,21.91
2022-11-28T22:18:38.106Z,21.91
2022-11-28T22:19:38.136Z,21.90
2022-11-28T22:20:43.664Z,21.88
2022-11-28T22:21:56.412Z,21.84
2022-11-28T22:22:38.155Z,21.86
2022-11-28T22:23:38.253Z,21.82
2022-11-28T22:24:38.244Z,21.80
2022-11-28T22:25:38.196Z,21.80
2022-11-28T22:26:38.597Z,21.77
2022-11-28T22:27:38.267Z,21.79
2022-11-28T22:28:37.502Z,21.77
2022-11-28T22:29:37.570Z,21.74
2022-11-28T22:30:37.600Z,21.74
2022-11-28T22:31:37.526Z,21.72
2022-11-28T22:32:37.292Z,21.72
2022-11-28T22:33:37.203Z,21.69
2022-11-28T22:34:40.033Z,21.69
2022-11-28T22:35:37.777Z,21.68
2022-11-28T22:36:37.129Z,21.69
2022-11-28T22:37:37.150Z,21.68
2022-11-28T22:38:37.164Z,21.67
2022-11-28T22:39:36.992Z,21.68
2022-11-28T22:40:36.826Z,21.67
2022-11-28T22:41:36.751Z,21.65
2022-11-28T22:42:36.629Z,21.65
2022-11-28T22:43:36.613Z,21.65
2022-11-28T22:44:36.624Z,21.64
2022-11-28T22:45:36.517Z,21.64
2022-11-28T22:46:36.437Z,21.65
2022-11-28T22:47:36.501Z,21.64
2022-11-28T22:48:36.331Z,21.64
2022-11-28T22:49:36.281Z,21.64
2022-11-28T22:50:40.060Z,21.62
2022-11-28T22:51:36.343Z,21.64
2022-11-28T22:52:36.094Z,21.64
2022-11-28T22:53:36.076Z,21.65
2022-11-28T22:54:36.036Z,21.68
2022-11-28T22:56:11.146Z,21.74
2022-11-28T22:57:12.225Z,21.74
2022-11-28T22:58:12.125Z,21.74
2022-11-28T22:59:11.940Z,21.80
2022-11-28T23:00:12.177Z,21.77
2022-11-28T23:01:11.895Z,21.84
2022-11-28T23:02:12.223Z,21.80
2022-11-28T23:03:12.043Z,21.79
2022-11-28T23:04:12.192Z,21.75
2022-11-28T23:05:11.953Z,21.79
2022-11-28T23:06:11.980Z,21.82
2022-11-28T23:07:11.884Z,21.80
2022-11-28T23:08:12.003Z,21.77
2022-11-28T23:09:11.809Z,21.79
2022-11-28T23:10:12.090Z,21.82
2022-11-28T23:11:11.783Z,21.72
2022-11-28T23:12:11.972Z,21.74
2022-11-28T23:13:11.803Z,21.72
2022-11-28T23:14:11.820Z,21.69
2022-11-28T23:15:11.793Z,21.71
2022-11-28T23:16:11.867Z,21.71
2022-11-28T23:17:11.699Z,21.74
2022-11-28T23:18:11.888Z,21.74
2022-11-28T23:19:11.708Z,21.71
2022-11-28T23:20:11.942Z,21.71
2022-11-28T23:21:11.653Z,21.72
2022-11-28T23:22:11.813Z,21.69
2022-11-28T23:23:11.621Z,21.72
2022-11-28T23:24:11.675Z,21.74
2022-11-28T23:25:11.601Z,21.69
2022-11-28T23:26:11.715Z,21.69
2022-11-28T23:27:11.665Z,21.69
2022-11-28T23:28:11.614Z,21.69
2022-11-28T23:29:11.602Z,21.67
2022-11-28T23:30:11.650Z,21.69
2022-11-28T23:31:11.579Z,21.65
2022-11-28T23:32:11.767Z,21.67
2022-11-28T23:33:11.627Z,21.71
2022-11-28T23:34:11.551Z,21.68
2022-11-28T23:35:11.727Z,21.71
2022-11-28T23:36:11.594Z,21.69
2022-11-28T23:37:11.562Z,21.64
2022-11-28T23:38:11.597Z,21.67
2022-11-28T23:39:11.455Z,21.68
2022-11-28T23:40:11.921Z,21.65
2022-11-28T23:41:12.029Z,21.65
2022-11-28T23:42:11.602Z,21.65
2022-11-28T23:43:11.361Z,21.65
2022-11-28T23:44:11.531Z,21.68
2022-11-28T23:45:11.385Z,21.67
2022-11-28T23:46:12.040Z,21.67
2022-11-28T23:47:11.330Z,21.69
2022-11-28T23:48:11.445Z,21.67
2022-11-28T23:49:11.432Z,21.64
2022-11-28T23:50:12.971Z,21.68
2022-11-28T23:51:11.249Z,21.56
2022-11-28T23:52:11.454Z,21.67
2022-11-28T23:53:11.287Z,21.65
2022-11-28T23:54:11.334Z,21.61
2022-11-28T23:55:11.216Z,21.59
2022-11-28T23:56:11.296Z,21.62
2022-11-28T23:57:11.188Z,21.62
2022-11-28T23:58:11.359Z,21.59
2022-11-28T23:59:11.293Z,21.59
